Time;durP1;ratioP1;P1;durP2;ratioP2;P2;SDS_P1;SDS_P2;PMS_P1;PMS_P2;Temp;Humidity;BMP_temperature;BMP_pressure;BME280_temperature;BME280_humidity;BME280_pressure;Samples;Min_cycle;Max_cycle;Signal;HPM_P1;HPM_P2
2022/11/08 00:03:16;;;;;;;15.75;10.60;;;;;;;9.30;83.90;100820.39;1691572;82;21100;-81
2022/11/08 00:15:12;;;;;;;17.92;12.23;;;;;;;9.15;83.91;100830.81;1674385;83;21591;-82
2022/11/08 00:17:57;;;;;;;20.45;12.50;;;;;;;9.11;83.92;100823.95;1685954;82;21492;-82
2022/11/08 00:20:42;;;;;;;23.10;11.90;;;;;;;9.08;83.92;100833.00;1459479;81;5002319;-82
2022/11/08 00:23:27;;;;;;;19.27;11.80;;;;;;;9.05;83.95;100823.99;1693734;82;21088;-82
2022/11/08 00:26:12;;;;;;;18.17;10.13;;;;;;;9.02;83.92;100821.44;1692161;82;21333;-82
2022/11/08 00:28:58;;;;;;;13.03;9.85;;;;;;;9.00;83.92;100820.59;1663115;84;20966;-82
2022/11/08 00:31:43;;;;;;;16.33;9.30;;;;;;;8.97;83.94;100818.88;1711698;82;21116;-82
2022/11/08 00:34:29;;;;;;;14.30;10.00;;;;;;;8.93;83.95;100815.47;1715943;82;21466;-82
2022/11/08 00:37:15;;;;;;;17.85;9.50;;;;;;;8.90;83.96;100815.91;1671905;83;21394;-82
2022/11/08 00:40:00;;;;;;;12.73;8.30;;;;;;;8.88;83.97;100818.94;1707280;82;21493;-82
2022/11/08 00:42:45;;;;;;;13.50;8.50;;;;;;;8.85;83.98;100815.08;1700497;82;21072;-82
2022/11/08 00:45:30;;;;;;;12.50;8.40;;;;;;;8.83;83.97;100813.84;1701375;82;21088;-82
2022/11/08 00:48:16;;;;;;;18.57;8.75;;;;;;;8.82;84.00;100818.57;1690616;82;21020;-81
2022/11/08 00:51:07;;;;;;;10.97;8.27;;;;;;;8.80;84.02;100815.14;1694279;82;21056;-81
2022/11/08 00:53:52;;;;;;;13.60;7.97;;;;;;;8.79;84.02;100819.87;1703221;82;21066;-81
2022/11/08 00:56:37;;;;;;;11.90;7.37;;;;;;;8.78;84.06;100814.30;1679330;83;21085;-82
2022/11/08 00:59:22;;;;;;;13.75;7.53;;;;;;;8.77;84.02;100818.17;1697287;82;21152;-82
2022/11/08 01:02:07;;;;;;;15.13;8.15;;;;;;;8.76;84.03;100816.45;1675330;84;21569;-82
2022/11/08 01:04:53;;;;;;;16.27;7.50;;;;;;;8.75;84.04;100822.48;1676145;84;21104;-82
2022/11/08 01:07:38;;;;;;;10.58;6.75;;;;;;;8.76;84.07;100819.03;1706656;82;21072;-82
2022/11/08 01:10:23;;;;;;;11.22;7.17;;;;;;;8.74;84.04;100815.17;1692836;82;21000;-81
2022/11/08 01:13:08;;;;;;;15.20;8.18;;;;;;;8.74;84.04;100816.89;1698754;82;21504;-82
2022/11/08 01:15:53;;;;;;;11.73;7.08;;;;;;;8.73;84.05;100813.89;1707549;82;20970;-81
2022/11/08 01:18:39;;;;;;;10.98;7.62;;;;;;;8.72;84.07;100819.48;1708929;82;21060;-82
2022/11/08 01:21:26;;;;;;;13.45;8.03;;;;;;;8.70;84.04;100822.50;1714374;82;21076;-82
2022/11/08 01:24:10;;;;;;;17.02;8.23;;;;;;;8.70;84.05;100824.22;1697408;82;21134;-81
2022/11/08 01:26:55;;;;;;;18.55;8.68;;;;;;;8.68;84.08;100823.37;1671241;84;20982;-82
2022/11/08 01:29:41;;;;;;;18.00;8.53;;;;;;;8.67;84.08;100827.67;1675820;84;21005;-82
2022/11/08 01:32:26;;;;;;;14.63;8.80;;;;;;;8.68;84.13;100828.52;1674861;84;21557;-82
2022/11/08 01:35:11;;;;;;;15.78;8.55;;;;;;;8.68;84.15;100830.67;1702942;82;21079;-82
2022/11/08 01:37:55;;;;;;;14.87;9.58;;;;;;;8.69;84.15;100827.23;1686313;82;21039;-82
2022/11/08 01:40:47;;;;;;;17.30;9.88;;;;;;;8.71;84.16;100827.22;1702160;82;21085;-82
2022/11/08 01:43:48;;;;;;;15.48;9.38;;;;;;;8.70;84.16;100829.38;1698873;82;21117;-82
2022/11/08 01:46:40;;;;;;;15.40;9.65;;;;;;;8.72;84.20;100828.94;1698704;82;21564;-82
2022/11/08 01:49:36;;;;;;;16.23;9.43;;;;;;;8.71;84.18;100825.50;1708486;82;21096;-82
2022/11/08 01:52:47;;;;;;;14.28;9.08;;;;;;;8.72;84.17;100827.22;1691613;82;21096;-82
2022/11/08 01:55:36;;;;;;;15.70;8.70;;;;;;;8.74;84.19;100828.50;1695361;82;21609;-82
2022/11/08 01:58:25;;;;;;;13.32;8.65;;;;;;;8.75;84.19;100831.50;1700990;82;21489;-82
2022/11/08 02:01:12;;;;;;;11.88;8.70;;;;;;;8.75;84.19;100831.07;1698925;82;21045;-82
2022/11/08 02:03:57;;;;;;;13.72;9.13;;;;;;;8.76;84.22;100825.48;1707498;82;20945;-82
2022/11/08 02:06:43;;;;;;;18.92;10.60;;;;;;;8.77;84.22;100820.75;1660459;84;20907;-82
2022/11/08 02:09:30;;;;;;;17.75;11.40;;;;;;;8.78;84.24;100817.30;1673413;84;20910;-81
2022/11/08 02:12:16;;;;;;;23.85;13.50;;;;;;;8.79;84.21;100819.02;1672692;84;20965;-81
2022/11/08 02:15:01;;;;;;;19.37;14.78;;;;;;;8.79;84.24;100815.16;1612294;84;5000998;-82
2022/11/08 02:17:46;;;;;;;21.48;14.53;;;;;;;8.80;84.25;100815.58;1681866;83;21454;-82
2022/11/08 02:20:32;;;;;;;20.10;13.70;;;;;;;8.80;84.25;100811.27;1680779;84;20926;-82
2022/11/08 02:23:22;;;;;;;20.15;12.45;;;;;;;8.82;84.27;100811.27;1675998;83;21383;-82
2022/11/08 02:26:07;;;;;;;19.67;11.55;;;;;;;8.82;84.26;100811.27;1662914;84;20966;-82
2022/11/08 02:28:52;;;;;;;17.95;9.95;;;;;;;8.82;84.27;100806.97;1668080;84;21707;-82
2022/11/08 02:31:37;;;;;;;17.52;9.65;;;;;;;8.83;84.28;100807.83;1682377;84;20907;-82
2022/11/08 02:34:30;;;;;;;13.83;8.98;;;;;;;8.84;84.31;100812.08;1702203;82;21402;-82
2022/11/08 02:37:18;;;;;;;16.97;8.40;;;;;;;8.85;84.31;100803.48;1709458;82;21544;-82
2022/11/08 02:40:04;;;;;;;15.35;8.35;;;;;;;8.86;84.32;100808.62;1703692;82;21105;-82
2022/11/08 02:42:49;;;;;;;13.65;7.95;;;;;;;8.86;84.31;100805.20;1698656;82;21544;-82
2022/11/08 02:45:34;;;;;;;12.45;8.38;;;;;;;8.88;84.33;100809.91;1700224;82;21086;-82
2022/11/08 02:48:21;;;;;;;15.95;8.33;;;;;;;8.87;84.34;100806.48;1697403;82;21048;-82
2022/11/08 02:51:06;;;;;;;;;;;;;;;8.88;84.34;100808.62;1697980;82;21115;-82
2022/11/08 02:53:51;;;;;;;13.60;8.65;;;;;;;8.89;84.42;100812.48;1706075;82;20140;-82
2022/11/08 02:56:36;;;;;;;14.33;9.33;;;;;;;8.89;84.36;100812.48;1699598;82;21549;-82
2022/11/08 02:59:21;;;;;;;13.38;9.20;;;;;;;8.88;84.41;100812.05;1699958;82;21452;-82
2022/11/08 03:02:07;;;;;;;13.88;9.75;;;;;;;8.90;84.40;100809.47;1697768;82;21061;-82
2022/11/08 03:04:52;;;;;;;13.98;10.13;;;;;;;8.89;84.37;100811.19;1701891;82;21084;-82
2022/11/08 03:07:37;;;;;;;11.38;9.35;;;;;;;8.89;84.37;100812.48;1698969;82;21076;-81
2022/11/08 03:10:24;;;;;;;13.22;9.85;;;;;;;8.90;84.39;100814.19;1711057;82;21104;-81
2022/11/08 03:13:09;;;;;;;12.50;8.63;;;;;;;8.90;84.37;100817.20;1697133;82;21529;-81
2022/11/08 03:15:54;;;;;;;11.40;8.10;;;;;;;8.89;84.39;100815.06;1699819;82;21502;-81
2022/11/08 03:18:40;;;;;;;13.40;8.95;;;;;;;8.89;84.41;100820.22;1694579;82;21092;-82
2022/11/08 03:21:24;;;;;;;12.70;7.83;;;;;;;8.90;84.42;100819.78;1698431;82;20984;-82
2022/11/08 03:24:11;;;;;;;10.43;7.35;;;;;;;8.89;84.40;100817.64;1698870;82;21108;-82
2022/11/08 03:26:56;;;;;;;;;;;;;;;8.88;84.38;100816.36;1697053;82;21100;-83
2022/11/08 03:29:47;;;;;;;11.70;7.35;;;;;;;8.88;84.46;100821.52;1712499;82;20636;-82
2022/11/08 03:32:32;;;;;;;14.47;7.80;;;;;;;8.83;84.40;100819.00;1696319;82;21600;-82
2022/11/08 03:35:17;;;;;;;19.82;7.87;;;;;;;8.82;84.39;100824.16;1688833;82;21104;-82
2022/11/08 03:38:02;;;;;;;10.68;7.85;;;;;;;8.79;84.41;100818.59;1687105;82;21092;-82
2022/11/08 03:40:47;;;;;;;9.90;8.48;;;;;;;8.76;84.42;100817.31;1690715;82;21065;-82
2022/11/08 03:43:32;;;;;;;16.95;10.00;;;;;;;8.74;84.39;100816.89;1703631;82;21069;-81
2022/11/08 03:46:17;;;;;;;18.60;13.72;;;;;;;8.70;84.40;100816.05;1696469;82;21414;-81
2022/11/08 03:49:03;;;;;;;20.80;14.58;;;;;;;8.66;84.37;100818.66;1672261;84;21648;-82
2022/11/08 03:51:48;;;;;;;20.08;14.90;;;;;;;8.60;84.40;100816.53;1663286;84;21470;-82
2022/11/08 03:54:33;;;;;;;17.67;14.50;;;;;;;8.56;84.40;100813.97;1699018;82;21051;-82
2022/11/08 03:57:18;;;;;;;16.30;11.63;;;;;;;8.51;84.37;100813.99;1715430;82;21038;-82
2022/11/08 04:00:06;;;;;;;11.90;9.80;;;;;;;8.46;84.39;100811.01;1698585;82;21117;-82
2022/11/08 04:02:51;;;;;;;11.20;7.92;;;;;;;8.42;84.40;100814.45;1695706;82;21118;-82
2022/11/08 04:05:36;;;;;;;12.47;6.92;;;;;;;8.37;84.39;100819.63;1698346;82;21532;-82
2022/11/08 04:08:21;;;;;;;11.78;6.87;;;;;;;8.32;84.41;100817.47;1691692;82;21133;-82
2022/11/08 04:17:14;;;;;;;13.28;6.40;;;;;;;8.19;84.40;100808.09;1688187;82;21100;-81
2022/11/08 04:23:02;;;;;;;8.35;5.60;;;;;;;8.11;84.42;100804.25;1700613;82;21061;-81
2022/11/08 04:25:58;;;;;;;9.88;6.00;;;;;;;8.08;84.46;100810.70;1694065;82;22187;-81
2022/11/08 04:28:44;;;;;;;10.68;6.42;;;;;;;8.05;84.48;100802.13;1698211;82;21124;-81
2022/11/08 04:31:29;;;;;;;11.07;6.90;;;;;;;8.03;84.48;100796.98;1690592;82;21155;-81
2022/11/08 04:34:14;;;;;;;9.65;6.10;;;;;;;8.02;84.46;100803.42;1687567;82;21850;-81
2022/11/08 04:36:59;;;;;;;10.25;6.03;;;;;;;7.99;84.45;100809.44;1689941;82;21092;-81
2022/11/08 04:39:44;;;;;;;9.30;5.60;;;;;;;7.96;84.47;100805.15;1697705;82;21049;-82
2022/11/08 04:42:30;;;;;;;10.43;5.87;;;;;;;7.93;84.44;100811.59;1697432;82;21081;-81
2022/11/08 04:45:15;;;;;;;6.78;5.37;;;;;;;7.92;84.47;100815.45;1689405;82;21076;-81
2022/11/08 04:48:00;;;;;;;12.33;5.87;;;;;;;7.89;84.44;100811.60;1666229;84;21104;-81
2022/11/08 04:50:45;;;;;;;11.22;5.90;;;;;;;7.86;84.48;100814.18;1659105;84;21011;-81
2022/11/08 04:53:30;;;;;;;8.88;5.62;;;;;;;7.84;84.47;100819.33;1648070;84;21109;-81
2022/11/08 04:56:19;;;;;;;12.07;7.03;;;;;;;7.81;84.46;100819.77;1660465;84;21674;-81
2022/11/08 04:59:04;;;;;;;11.48;5.95;;;;;;;7.79;84.48;100821.52;1652714;84;21056;-81
2022/11/08 05:01:49;;;;;;;9.38;5.95;;;;;;;7.75;84.48;100816.80;1644905;84;21695;-81
2022/11/08 05:04:34;;;;;;;11.28;6.03;;;;;;;7.73;84.51;100822.38;1671204;84;21076;-81
2022/11/08 05:07:19;;;;;;;8.00;6.00;;;;;;;7.70;84.49;100818.52;1663366;84;21009;-81
2022/11/08 05:10:05;;;;;;;9.08;5.67;;;;;;;7.68;84.46;100812.52;1658806;84;21116;-82
2022/11/08 05:12:55;;;;;;;9.95;5.80;;;;;;;7.64;84.46;100809.09;1656909;83;21064;-81
2022/11/08 05:15:40;;;;;;;12.13;6.25;;;;;;;7.62;84.46;100805.66;1655255;84;20988;-81
2022/11/08 05:18:25;;;;;;;9.20;5.47;;;;;;;7.58;84.47;100805.66;1656981;84;21064;-81
2022/11/08 05:24:18;;;;;;;8.15;5.62;;;;;;;7.51;84.46;100801.38;1654491;84;21057;-81
2022/11/08 05:27:04;;;;;;;6.97;5.90;;;;;;;7.49;84.51;100805.23;1653167;84;38325;-82
2022/11/08 05:29:48;;;;;;;8.48;5.78;;;;;;;7.46;84.49;100800.09;1629595;86;21136;-82
2022/11/08 05:32:33;;;;;;;14.18;6.08;;;;;;;7.45;84.50;100814.24;1659413;84;20987;-82
2022/11/08 05:35:20;;;;;;;11.88;5.58;;;;;;;7.42;84.48;100817.67;1656932;84;21490;-82
2022/11/08 05:38:05;;;;;;;10.88;5.72;;;;;;;7.40;84.51;100813.38;1618626;86;21089;-81
2022/11/08 05:40:50;;;;;;;10.03;5.75;;;;;;;7.38;84.53;100811.23;1662261;84;21125;-81
2022/11/08 05:43:36;;;;;;;6.97;5.60;;;;;;;7.36;84.51;100821.53;1670257;84;21589;-81
2022/11/08 05:46:23;;;;;;;11.83;6.20;;;;;;;7.34;84.50;100822.38;1658768;83;21253;-81
2022/11/08 05:49:08;;;;;;;11.12;5.10;;;;;;;7.31;84.47;100825.38;1697456;82;21519;-81
2022/11/08 05:51:53;;;;;;;8.80;5.42;;;;;;;7.29;84.47;100819.80;1710576;82;21052;-82
2022/11/08 05:54:38;;;;;;;10.05;5.87;;;;;;;7.25;84.49;100821.55;1700143;82;21597;-82
2022/11/08 05:57:23;;;;;;;12.95;5.05;;;;;;;7.23;84.51;100822.41;1709887;82;21045;-82
2022/11/08 06:00:10;;;;;;;14.65;6.28;;;;;;;7.20;84.50;100820.69;1704980;82;21040;-82
2022/11/08 06:02:55;;;;;;;8.63;6.40;;;;;;;7.18;84.48;100826.25;1680386;82;1216787;-82
2022/11/08 06:05:40;;;;;;;10.98;6.70;;;;;;;7.15;84.48;100823.68;1705277;82;21059;-82
2022/11/08 06:08:25;;;;;;;12.30;6.45;;;;;;;7.14;84.49;100817.25;1697514;82;21152;-82
2022/11/08 06:11:14;;;;;;;6.50;5.72;;;;;;;7.13;84.51;100826.67;1699058;82;21084;-82
2022/11/08 06:13:59;;;;;;;13.08;6.20;;;;;;;7.12;84.53;100824.96;1697685;82;21061;-82
2022/11/08 06:16:44;;;;;;;11.45;5.92;;;;;;;7.12;84.50;100826.67;1692230;82;21494;-82
2022/11/08 06:19:29;;;;;;;9.30;5.35;;;;;;;7.11;84.56;100825.81;1703850;82;21084;-82
2022/11/08 06:22:14;;;;;;;10.50;6.10;;;;;;;7.13;84.62;100827.11;1685894;82;21120;-82
2022/11/08 06:25:00;;;;;;;11.12;6.80;;;;;;;7.16;84.63;100825.39;1697986;82;21068;-82
2022/11/08 06:27:45;;;;;;;8.65;5.30;;;;;;;7.19;84.65;100829.26;1695763;82;21122;-82
2022/11/08 06:30:30;;;;;;;8.48;5.97;;;;;;;7.21;84.68;100820.26;1693768;82;21128;-82
2022/11/08 06:33:17;;;;;;;8.58;5.60;;;;;;;7.25;84.67;100825.41;1698312;82;21576;-82
2022/11/08 06:36:03;;;;;;;6.75;5.85;;;;;;;7.31;84.71;100830.95;1697118;82;21112;-82
2022/11/08 06:38:53;;;;;;;9.80;5.85;;;;;;;7.36;84.73;100830.53;1693925;82;21084;-82
2022/11/08 06:41:38;;;;;;;9.20;6.15;;;;;;;7.42;84.75;100838.25;1685431;82;21540;-81
2022/11/08 06:44:23;;;;;;;10.82;6.10;;;;;;;7.50;84.78;100839.55;1697294;82;21124;-82
2022/11/08 06:47:08;;;;;;;12.40;5.75;;;;;;;7.61;84.89;100840.41;1685391;82;21106;-82
2022/11/08 06:49:53;;;;;;;8.65;6.15;;;;;;;7.79;85.00;100835.67;1687747;82;21549;-81
2022/11/08 06:52:39;;;;;;;9.88;5.62;;;;;;;7.95;84.91;100836.91;1661381;83;21105;-82
2022/11/08 06:55:25;;;;;;;8.93;6.33;;;;;;;8.02;84.76;100833.89;1693732;82;21033;-82
2022/11/08 06:58:10;;;;;;;10.37;6.37;;;;;;;8.03;84.74;100836.03;1666996;83;21497;-83
2022/11/08 07:00:56;;;;;;;11.10;6.83;;;;;;;7.93;84.75;100815.45;1665704;83;21081;-83
2022/11/08 07:03:41;;;;;;;10.33;6.37;;;;;;;8.08;84.85;100835.17;1672725;83;21125;-82
2022/11/08 07:06:26;;;;;;;11.97;6.15;;;;;;;8.23;85.00;100831.70;1665881;83;21097;-82
2022/11/08 07:09:11;;;;;;;10.58;6.25;;;;;;;8.41;84.97;100834.22;1660218;83;21470;-82
2022/11/08 07:11:56;;;;;;;10.18;6.58;;;;;;;8.53;84.88;100831.59;1665398;83;20978;-82
2022/11/08 07:14:41;;;;;;;11.53;7.30;;;;;;;8.65;84.97;100829.83;1693786;82;21144;-82
2022/11/08 07:17:27;;;;;;;12.50;7.47;;;;;;;8.88;85.14;100840.85;1695570;82;21077;-82
2022/11/08 07:20:12;;;;;;;8.95;7.17;;;;;;;9.00;84.91;100845.09;1664990;83;21632;-82
2022/11/08 07:22:58;;;;;;;11.83;6.25;;;;;;;9.03;84.88;100853.66;1686129;82;21128;-82
2022/11/08 07:25:43;;;;;;;8.45;6.37;;;;;;;9.17;85.08;100854.88;1674290;82;21593;-82
2022/11/08 07:28:28;;;;;;;8.13;5.78;;;;;;;9.47;85.22;100852.48;1667230;83;21093;-82
2022/11/08 07:31:13;;;;;;;14.45;6.50;;;;;;;9.71;85.12;100844.55;1696454;82;21548;-82
2022/11/08 07:33:58;;;;;;;8.33;6.00;;;;;;;9.91;85.12;100846.48;1692017;82;21064;-82
2022/11/08 07:36:44;;;;;;;7.25;5.62;;;;;;;10.15;85.08;100832.91;1698104;82;21041;-82
2022/11/08 07:39:29;;;;;;;8.93;6.03;;;;;;;10.26;84.99;100837.12;1693154;82;21060;-83
2022/11/08 07:42:14;;;;;;;8.18;6.50;;;;;;;10.34;85.02;100847.37;1687052;82;21085;-82
2022/11/08 07:45:00;;;;;;;10.48;6.83;;;;;;;10.40;85.03;100842.56;1691864;82;21116;-83
2022/11/08 07:47:45;;;;;;;19.55;7.30;;;;;;;10.41;85.00;100847.69;1694417;82;21040;-82
2022/11/08 07:50:31;;;;;;;14.45;7.72;;;;;;;10.42;85.02;100849.84;1706232;82;21052;-82
2022/11/08 07:53:16;;;;;;;13.13;7.45;;;;;;;10.41;85.06;100845.54;1700433;82;21145;-82
2022/11/08 07:56:01;;;;;;;13.15;7.53;;;;;;;10.42;85.08;100853.72;1709658;82;21040;-82
2022/11/08 07:58:46;;;;;;;12.45;7.53;;;;;;;10.40;85.00;100850.33;1704175;82;21567;-82
2022/11/08 08:01:31;;;;;;;14.00;6.92;;;;;;;10.33;85.01;100842.22;1698308;82;21073;-82
2022/11/08 08:04:16;;;;;;;11.80;6.40;;;;;;;10.26;85.00;100840.14;1702797;82;21116;-82
2022/11/08 08:07:01;;;;;;;10.80;6.90;;;;;;;10.24;85.10;100844.47;1702921;82;21615;-82
2022/11/08 08:09:46;;;;;;;12.63;7.45;;;;;;;10.24;85.17;100847.91;1700076;82;21155;-85
2022/11/08 08:12:32;;;;;;;14.30;7.83;;;;;;;10.22;85.13;100844.48;1663646;83;21096;-86
2022/11/08 08:15:17;;;;;;;12.07;7.25;;;;;;;10.20;85.14;100847.52;1675828;83;21120;-85
2022/11/08 08:18:04;;;;;;;13.95;7.67;;;;;;;10.20;85.17;100843.64;1694972;82;21064;-85
2022/11/08 08:20:49;;;;;;;10.82;7.22;;;;;;;10.20;85.15;100851.83;1702103;81;22304;-85
2022/11/08 08:23:34;;;;;;;12.85;6.37;;;;;;;10.19;85.15;100845.80;1679324;83;21722;-85
2022/11/08 08:26:19;;;;;;;9.63;6.62;;;;;;;10.20;85.17;100849.25;1682279;83;21073;-85
2022/11/08 08:29:05;;;;;;;13.95;6.80;;;;;;;10.22;85.19;100849.65;1677098;83;21786;-84
2022/11/08 08:31:50;;;;;;;14.63;5.92;;;;;;;10.25;85.19;100843.59;1679771;83;21061;-83
2022/11/08 08:34:35;;;;;;;11.25;6.28;;;;;;;10.31;85.24;100842.23;1679767;83;21556;-83
2022/11/08 08:37:20;;;;;;;11.03;5.83;;;;;;;10.38;85.23;100845.17;1683626;83;21088;-83
2022/11/08 08:40:07;;;;;;;8.55;5.17;;;;;;;10.45;85.20;100844.19;1672331;83;21323;-83
2022/11/08 08:42:51;;;;;;;;;;;;;;;10.49;85.16;100842.43;1679757;83;21532;-82
2022/11/08 08:45:37;;;;;;;11.90;5.15;;;;;;;10.54;85.11;100834.18;1709813;82;20357;-82
2022/11/08 08:48:22;;;;;;;7.80;4.75;;;;;;;10.56;85.13;100835.02;1671301;83;21061;-82
2022/11/08 08:51:07;;;;;;;8.15;5.03;;;;;;;10.60;85.13;100831.52;1692298;82;21044;-82
2022/11/08 08:53:52;;;;;;;8.13;4.83;;;;;;;10.61;85.10;100835.38;1657330;84;21664;-79
2022/11/08 08:56:37;;;;;;;8.50;4.42;;;;;;;10.66;85.15;100828.00;1695507;82;21618;-80
2022/11/08 08:59:22;;;;;;;7.97;4.55;;;;;;;10.70;85.16;100830.53;1651571;84;21074;-82
2022/11/08 09:02:10;;;;;;;9.63;4.28;;;;;;;10.75;85.15;100827.88;1695674;82;21119;-82
2022/11/08 09:04:55;;;;;;;8.55;4.30;;;;;;;10.78;85.08;100831.72;1675195;83;21513;-81
2022/11/08 09:07:41;;;;;;;6.85;4.00;;;;;;;10.82;85.10;100835.98;1696423;82;21669;-79
2022/11/08 09:10:27;;;;;;;10.82;4.60;;;;;;;10.88;85.14;100836.75;1658558;84;21081;-78
2022/11/08 09:13:13;;;;;;;8.53;4.65;;;;;;;10.92;85.10;100843.56;1656038;84;21109;-79
2022/11/08 09:16:00;;;;;;;6.85;4.60;;;;;;;10.97;85.07;100843.50;1694617;82;21427;-79
2022/11/08 09:21:09;;;;;;;6.33;4.22;;;;;;;11.12;85.08;100842.00;1829558;77;21959;-79
2022/11/08 09:23:54;;;;;;;6.53;4.30;;;;;;;11.13;85.05;100850.61;1804897;77;20985;-85
2022/11/08 09:26:39;;;;;;;5.42;3.70;;;;;;;11.16;84.96;100845.39;1808016;77;21540;-80
2022/11/08 09:29:24;;;;;;;9.58;4.28;;;;;;;11.19;84.99;100842.32;1769641;79;21013;-79
2022/11/08 09:32:10;;;;;;;7.83;4.08;;;;;;;11.27;85.07;100841.77;1764063;78;20981;-79
2022/11/08 09:34:55;;;;;;;7.83;3.98;;;;;;;11.34;85.03;100839.94;1764591;80;21366;-79
2022/11/08 09:37:40;;;;;;;8.03;4.50;;;;;;;11.40;84.98;100837.70;1738569;80;20965;-80
2022/11/08 09:41:01;;;;;;;6.85;4.25;;;;;;;11.43;84.99;100832.47;1772753;80;20960;-79
2022/11/08 09:44:20;;;;;;;9.10;4.78;;;;;;;11.49;84.98;100834.49;1743094;80;21459;-79
2022/11/08 09:47:16;;;;;;;11.20;4.70;;;;;;;11.54;84.94;100834.42;1744320;80;21664;-79
2022/11/08 09:50:18;;;;;;;9.58;5.30;;;;;;;11.58;84.88;100833.05;1743241;81;21564;-79
2022/11/08 09:53:18;;;;;;;9.75;4.28;;;;;;;11.61;84.80;100830.84;1771553;78;21156;-79
2022/11/08 09:56:31;;;;;;;13.05;5.53;;;;;;;11.64;84.83;100826.91;1772544;79;21026;-79
2022/11/08 09:59:43;;;;;;;9.35;4.35;;;;;;;11.68;84.84;100822.53;1772146;80;21131;-80
2022/11/08 10:02:28;;;;;;;7.83;4.95;;;;;;;11.73;84.84;100824.17;1770491;78;21105;-79
2022/11/08 10:05:16;;;;;;;9.15;5.78;;;;;;;11.79;84.86;100815.02;1744823;80;20973;-79
2022/11/08 10:08:10;;;;;;;8.70;5.35;;;;;;;11.84;84.84;100810.62;1737346;81;21001;-79
2022/11/08 10:11:29;;;;;;;10.45;6.25;;;;;;;11.90;84.89;100807.06;1736345;80;21531;-79
2022/11/08 10:14:51;;;;;;;9.55;5.22;;;;;;;11.93;84.73;100809.16;1738451;82;21494;-79
2022/11/08 10:17:51;;;;;;;9.05;5.55;;;;;;;11.98;84.74;100814.22;1737952;80;21045;-79
2022/11/08 10:20:50;;;;;;;7.03;4.40;;;;;;;12.02;84.74;100802.06;1729498;82;20990;-79
2022/11/08 10:23:46;;;;;;;9.55;5.08;;;;;;;12.04;84.71;100806.77;1701764;82;21121;-79
2022/11/08 10:26:45;;;;;;;9.63;4.83;;;;;;;12.03;84.62;100808.52;1703051;83;21118;-79
2022/11/08 10:29:37;;;;;;;8.40;5.05;;;;;;;12.06;84.60;100806.30;1697115;83;21066;-79
2022/11/08 10:32:24;;;;;;;11.50;5.45;;;;;;;12.08;84.67;100806.69;1699127;84;21017;-79
2022/11/08 10:35:16;;;;;;;7.95;4.70;;;;;;;12.14;84.64;100803.13;1723271;81;21830;-79
2022/11/08 10:38:06;;;;;;;9.70;4.78;;;;;;;12.17;84.60;100800.47;1726642;81;21046;-79
2022/11/08 10:41:17;;;;;;;7.05;4.55;;;;;;;12.20;84.58;100800.41;1724606;81;21054;-79
2022/11/08 10:44:19;;;;;;;10.08;4.28;;;;;;;12.23;84.56;100800.36;1693523;82;21117;-84
2022/11/08 10:47:12;;;;;;;10.35;4.25;;;;;;;12.28;84.56;100796.37;1724993;82;21021;-81
2022/11/08 10:49:57;;;;;;;6.08;4.25;;;;;;;12.31;84.47;100795.02;1726435;82;20911;-86
2022/11/08 10:53:00;;;;;;;8.60;4.58;;;;;;;12.33;84.43;100790.66;1699762;82;20978;-82
2022/11/08 10:56:02;;;;;;;9.40;3.85;;;;;;;12.35;84.44;100794.07;1760027;79;20922;-81
2022/11/08 10:58:46;;;;;;;5.55;3.85;;;;;;;12.39;84.46;100787.50;1761228;79;20930;-81
2022/11/08 11:01:31;;;;;;;6.05;3.80;;;;;;;12.42;84.43;100784.84;1691354;82;20926;-81
2022/11/08 11:04:30;;;;;;;8.73;4.80;;;;;;;12.45;84.38;100787.81;1700885;82;20907;-81
2022/11/08 11:07:34;;;;;;;12.10;4.58;;;;;;;12.50;84.40;100790.69;1686049;82;21104;-80
2022/11/08 11:10:30;;;;;;;8.33;3.90;;;;;;;12.54;84.34;100788.89;1669588;82;21639;-80
2022/11/08 11:13:27;;;;;;;11.43;4.72;;;;;;;12.56;84.35;100781.48;1709920;82;21069;-83
2022/11/08 11:16:14;;;;;;;9.58;4.22;;;;;;;12.61;84.27;100783.98;1712274;81;21485;-81
2022/11/08 11:19:01;;;;;;;8.73;4.40;;;;;;;12.65;84.24;100782.17;1711303;81;21133;-81
2022/11/08 11:21:51;;;;;;;9.15;4.10;;;;;;;12.67;84.19;100773.91;1708303;81;21105;-82
2022/11/08 11:24:49;;;;;;;9.78;4.85;;;;;;;12.68;84.26;100776.47;1711967;81;21117;-82
2022/11/08 11:27:37;;;;;;;8.08;4.12;;;;;;;12.71;84.18;100773.81;1709580;81;21099;-83
2022/11/08 11:30:32;;;;;;;6.20;3.60;;;;;;;12.72;84.08;100772.92;1707569;81;21037;-82
2022/11/08 11:33:27;;;;;;;6.50;3.80;;;;;;;12.73;84.05;100760.80;1762637;79;21015;-82
2022/11/08 11:36:17;;;;;;;5.72;3.42;;;;;;;12.76;84.09;100761.59;1761269;79;21064;-82
2022/11/08 11:39:08;;;;;;;7.20;3.47;;;;;;;12.79;84.08;100756.78;1755635;79;21120;-82
2022/11/08 11:42:13;;;;;;;9.25;4.10;;;;;;;12.82;84.02;100758.86;1756548;80;20943;-82
2022/11/08 11:45:06;;;;;;;6.70;3.60;;;;;;;12.85;83.97;100752.75;1762241;79;20985;-83
2022/11/08 11:47:58;;;;;;;6.22;3.60;;;;;;;12.88;83.99;100753.97;1690357;82;21070;-82
2022/11/08 11:50:48;;;;;;;7.60;3.52;;;;;;;12.91;83.95;100748.70;1704955;82;21137;-82
2022/11/08 11:53:35;;;;;;;9.25;3.65;;;;;;;12.93;83.93;100754.27;1695763;82;21037;-82
2022/11/08 11:56:31;;;;;;;6.72;3.50;;;;;;;12.97;83.93;100754.20;1679195;84;21065;-82
2022/11/08 11:59:38;;;;;;;5.90;3.12;;;;;;;13.00;83.91;100743.75;1703505;84;21006;-83
2022/11/08 12:02:31;;;;;;;8.38;2.85;;;;;;;13.03;83.87;100746.23;1701018;84;21613;-82
2022/11/08 12:05:59;;;;;;;6.45;3.15;;;;;;;13.06;83.83;100748.77;1727734;81;20970;-83
2022/11/08 12:09:33;;;;;;;6.00;2.80;;;;;;;13.09;83.76;100748.69;1717570;82;21049;-81
2022/11/08 12:12:41;;;;;;;5.12;2.85;;;;;;;13.10;83.66;100749.95;1717318;81;21101;-81
2022/11/08 12:15:49;;;;;;;4.70;2.70;;;;;;;13.12;83.71;100745.58;1718094;81;21546;-81
2022/11/08 12:19:04;;;;;;;5.17;2.80;;;;;;;13.14;83.61;100747.69;1719354;81;21073;-81
2022/11/08 12:22:16;;;;;;;5.37;2.47;;;;;;;13.17;83.55;100742.90;1696233;80;21065;-81
2022/11/08 12:25:30;;;;;;;3.33;2.33;;;;;;;13.21;83.55;100740.19;1731883;82;21144;-81
2022/11/08 12:28:49;;;;;;;6.50;3.03;;;;;;;13.24;83.50;100733.62;1735905;80;21017;-81
2022/11/08 12:31:52;;;;;;;4.70;1.95;;;;;;;13.25;83.37;100731.44;1737173;82;20997;-81
2022/11/08 12:34:59;;;;;;;6.00;2.60;;;;;;;13.28;83.39;100727.05;1725530;81;21110;-81
2022/11/08 12:38:12;;;;;;;9.00;2.52;;;;;;;13.31;83.38;100724.38;1771908;79;21030;-81
2022/11/08 12:41:10;;;;;;;10.00;3.27;;;;;;;13.35;83.30;100728.16;1772565;79;21316;-82
2022/11/08 12:44:09;;;;;;;7.35;3.67;;;;;;;13.35;83.27;100725.56;1774319;79;21033;-82
2022/11/08 12:47:27;;;;;;;6.40;2.62;;;;;;;13.36;83.29;100725.97;1764672;79;20969;-82
2022/11/08 12:50:50;;;;;;;7.10;3.62;;;;;;;13.36;83.20;100721.22;1770572;80;21132;-82
2022/11/08 12:53:53;;;;;;;6.72;3.20;;;;;;;13.36;83.19;100717.33;1765468;80;20982;-82
2022/11/08 12:56:47;;;;;;;8.90;3.27;;;;;;;13.33;83.13;100720.86;1705411;82;21109;-84
2022/11/08 12:59:46;;;;;;;8.73;3.30;;;;;;;13.32;83.11;100717.00;1767428;80;21530;-83
2022/11/08 13:02:35;;;;;;;5.87;2.60;;;;;;;13.31;83.07;100715.30;1764814;79;21013;-84
2022/11/08 13:05:29;;;;;;;7.15;2.95;;;;;;;13.29;83.03;100719.67;1764732;80;21020;-84
2022/11/08 13:08:25;;;;;;;7.62;3.10;;;;;;;13.28;83.00;100723.16;1762695;80;21076;-84
2022/11/08 13:11:21;;;;;;;7.22;3.55;;;;;;;13.24;82.92;100716.74;1767180;79;20990;-84
2022/11/08 13:14:16;;;;;;;8.40;3.98;;;;;;;13.22;82.93;100717.67;1696205;80;687756;-84
2022/11/08 13:17:26;;;;;;;6.62;3.42;;;;;;;13.19;82.89;100721.64;1665555;84;21039;-84
2022/11/08 13:20:33;;;;;;;6.53;3.85;;;;;;;13.16;82.85;100714.78;1670725;84;21187;-83
2022/11/08 13:23:30;;;;;;;8.30;3.83;;;;;;;13.13;82.81;100713.53;1627988;85;21099;-83
2022/11/08 13:26:24;;;;;;;12.03;4.25;;;;;;;13.10;82.81;100721.39;1637625;85;21114;-84
2022/11/08 13:29:26;;;;;;;9.60;4.40;;;;;;;13.08;82.78;100716.69;1638376;85;21094;-84
2022/11/08 13:32:16;;;;;;;5.65;3.87;;;;;;;13.07;82.78;100717.58;1633299;85;21142;-84
2022/11/08 13:35:09;;;;;;;13.45;4.35;;;;;;;13.05;82.79;100718.05;1630638;85;21547;-84